Time,TemperatureF,DewpointF,PressureIn,WindDirection,WindDirectionDegrees,WindSpeedMPH,WindSpeedGustMPH,Humidity,HourlyPrecipIn,Conditions,Clouds,dailyrainin,SoftwareType,DateUTC
2013-03-08 00:02:00,29.0,18.0,-100.00,North,355,1.0,2.0,63,-99.99,,,-99.99,,2013-03-08 05:02:00,
2013-03-08 00:12:00,29.0,18.0,-100.00,NNW,345,1.0,2.0,63,-99.99,,,-99.99,,2013-03-08 05:12:00,
2013-03-08 00:22:00,29.0,18.0,-100.00,North,350,1.0,3.0,63,-99.99,,,-99.99,,2013-03-08 05:22:00,
2013-03-08 00:33:00,28.0,18.0,-100.00,North,5,1.0,2.0,64,-99.99,,,-99.99,,2013-03-08 05:33:00,
2013-03-08 00:42:00,28.0,18.0,-100.00,North,0,2.0,3.0,64,-99.99,,,-99.99,,2013-03-08 05:42:00,
2013-03-08 00:52:00,28.0,18.0,-100.00,North,350,1.0,4.0,65,-99.99,,,-99.99,,2013-03-08 05:52:00,
2013-03-08 01:02:00,28.0,19.0,-100.00,NW,310,3.0,4.0,65,-99.99,,,-99.99,,2013-03-08 06:02:00,
2013-03-08 01:11:00,28.0,18.0,-100.00,NW,315,2.0,6.0,65,-99.99,,,-99.99,,2013-03-08 06:11:00,
2013-03-08 01:22:00,28.0,18.0,-100.00,NW,320,2.0,4.0,66,-99.99,,,-99.99,,2013-03-08 06:22:00,
2013-03-08 01:32:00,28.0,18.0,-100.00,NNW,335,2.0,4.0,66,-99.99,,,-99.99,,2013-03-08 06:32:00,
2013-03-08 01:42:00,27.0,17.0,-100.00,NNW,340,2.0,4.0,66,-99.99,,,-99.99,,2013-03-08 06:42:00,
2013-03-08 01:51:00,26.0,17.0,-100.00,NNW,340,2.0,3.0,67,-99.99,,,-99.99,,2013-03-08 06:51:00,
2013-03-08 02:01:00,26.0,17.0,-100.00,NNW,330,2.0,3.0,68,-99.99,,,-99.99,,2013-03-08 07:01:00,
2013-03-08 02:11:00,25.0,17.0,-100.00,NNW,335,2.0,3.0,69,-99.99,,,-99.99,,2013-03-08 07:11:00,
2013-03-08 02:22:00,25.0,17.0,-100.00,NNW,330,2.0,4.0,71,-99.99,,,-99.99,,2013-03-08 07:22:00,
2013-03-08 02:32:00,25.0,17.0,-100.00,NNW,345,2.0,4.0,72,-99.99,,,-99.99,,2013-03-08 07:32:00,
2013-03-08 02:42:00,25.0,17.0,-100.00,North,350,2.0,4.0,73,-99.99,,,-99.99,,2013-03-08 07:42:00,
2013-03-08 02:51:00,24.0,17.0,-100.00,North,355,1.0,4.0,74,-99.99,,,-99.99,,2013-03-08 07:51:00,
2013-03-08 03:01:00,24.0,17.0,-100.00,North,0,2.0,2.0,75,-99.99,,,-99.99,,2013-03-08 08:01:00,
2013-03-08 03:11:00,22.0,16.0,-100.00,North,0,2.0,3.0,76,-99.99,,,-99.99,,2013-03-08 08:11:00,
2013-03-08 03:22:00,23.0,17.0,-100.00,North,0,2.0,4.0,78,-99.99,,,-99.99,,2013-03-08 08:22:00,
2013-03-08 03:32:00,22.0,17.0,-100.00,North,0,2.0,3.0,79,-99.99,,,-99.99,,2013-03-08 08:32:00,
2013-03-08 03:42:00,23.0,18.0,-100.00,North,0,2.0,3.0,80,-99.99,,,-99.99,,2013-03-08 08:42:00,
2013-03-08 03:52:00,23.0,18.0,-100.00,North,5,2.0,4.0,80,-99.99,,,-99.99,,2013-03-08 08:52:00,
2013-03-08 04:03:00,23.0,18.0,-100.00,North,0,2.0,3.0,81,-99.99,,,-99.99,,2013-03-08 09:03:00,
2013-03-08 04:11:00,23.0,18.0,-100.00,North,0,2.0,3.0,81,-99.99,,,-99.99,,2013-03-08 09:11:00,
2013-03-08 04:21:00,23.0,18.0,-100.00,North,0,2.0,3.0,81,-99.99,,,-99.99,,2013-03-08 09:21:00,
2013-03-08 04:32:00,23.0,18.0,-100.00,North,0,2.0,3.0,81,-99.99,,,-99.99,,2013-03-08 09:32:00,
2013-03-08 04:42:00,24.0,19.0,-100.00,North,0,3.0,5.0,84,-99.99,,,-99.99,,2013-03-08 09:42:00,
2013-03-08 04:52:00,23.0,19.0,-100.00,North,0,2.0,3.0,84,-99.99,,,-99.99,,2013-03-08 09:52:00,
2013-03-08 05:01:00,23.0,19.0,-100.00,North,5,2.0,3.0,84,-99.99,,,-99.99,,2013-03-08 10:01:00,
2013-03-08 05:11:00,22.0,19.0,-100.00,North,0,2.0,2.0,85,-99.99,,,-99.99,,2013-03-08 10:11:00,
2013-03-08 05:21:00,22.0,18.0,-100.00,North,0,1.0,2.0,85,-99.99,,,-99.99,,2013-03-08 10:21:00,
2013-03-08 05:32:00,21.0,18.0,-100.00,North,10,1.0,2.0,86,-99.99,,,-99.99,,2013-03-08 10:32:00,
2013-03-08 05:42:00,21.0,17.0,-100.00,North,5,1.0,2.0,86,-99.99,,,-99.99,,2013-03-08 10:42:00,
2013-03-08 05:51:00,20.0,17.0,-100.00,North,0,1.0,2.0,87,-99.99,,,-99.99,,2013-03-08 10:51:00,
2013-03-08 06:01:00,19.0,17.0,-100.00,North,355,0.0,1.0,88,-99.99,,,-99.99,,2013-03-08 11:01:00,
2013-03-08 06:11:00,19.0,17.0,-100.00,North,0,1.0,2.0,88,-99.99,,,-99.99,,2013-03-08 11:11:00,
2013-03-08 06:21:00,20.0,17.0,-100.00,North,0,1.0,2.0,89,-99.99,,,-99.99,,2013-03-08 11:21:00,
2013-03-08 06:32:00,19.0,17.0,-100.00,NNW,335,1.0,2.0,89,-99.99,,,-99.99,,2013-03-08 11:32:00,
2013-03-08 06:42:00,19.0,17.0,-100.00,NNW,330,0.0,2.0,90,-99.99,,,-99.99,,2013-03-08 11:42:00,
2013-03-08 06:52:00,19.0,17.0,-100.00,North,0,0.0,1.0,90,-99.99,,,-99.99,,2013-03-08 11:52:00,
2013-03-08 07:02:00,19.0,17.0,-100.00,NW,325,1.0,1.0,91,-99.99,,,-99.99,,2013-03-08 12:02:00,
2013-03-08 07:11:00,19.0,17.0,-100.00,NW,310,1.0,2.0,91,-99.99,,,-99.99,,2013-03-08 12:11:00,
2013-03-08 07:22:00,19.0,17.0,-100.00,NW,315,1.0,2.0,91,-99.99,,,-99.99,,2013-03-08 12:22:00,
2013-03-08 07:32:00,19.0,17.0,-100.00,NNW,345,0.0,2.0,92,-99.99,,,-99.99,,2013-03-08 12:32:00,
2013-03-08 07:43:00,18.0,17.0,-100.00,North,355,1.0,2.0,92,-99.99,,,-99.99,,2013-03-08 12:43:00,
2013-03-08 07:52:00,19.0,17.0,-100.00,North,10,1.0,2.0,92,-99.99,,,-99.99,,2013-03-08 12:52:00,
2013-03-08 08:01:00,20.0,18.0,-100.00,North,0,2.0,3.0,92,-99.99,,,-99.99,,2013-03-08 13:01:00,
2013-03-08 08:11:00,21.0,19.0,-100.00,North,5,2.0,3.0,92,-99.99,,,-99.99,,2013-03-08 13:11:00,
2013-03-08 08:22:00,23.0,21.0,-100.00,North,0,1.0,2.0,92,-99.99,,,-99.99,,2013-03-08 13:22:00,
2013-03-08 08:32:00,25.0,23.0,-100.00,North,5,1.0,2.0,92,-99.99,,,-99.99,,2013-03-08 13:32:00,
2013-03-08 08:42:00,25.0,23.0,-100.00,NNE,30,3.0,4.0,89,-99.99,,,-99.99,,2013-03-08 13:42:00,
2013-03-08 08:52:00,27.0,23.0,-100.00,NNE,30,3.0,4.0,86,-99.99,,,-99.99,,2013-03-08 13:52:00,
2013-03-08 09:03:00,28.0,22.0,-100.00,NE,35,3.0,4.0,80,-99.99,,,-99.99,,2013-03-08 14:03:00,
2013-03-08 09:11:00,28.0,21.0,-100.00,NE,40,4.0,5.0,75,-99.99,,,-99.99,,2013-03-08 14:11:00,
2013-03-08 09:22:00,29.0,21.0,-100.00,NE,40,5.0,6.0,70,-99.99,,,-99.99,,2013-03-08 14:22:00,
2013-03-08 09:32:00,30.0,21.0,-100.00,NE,40,3.0,4.0,68,-99.99,,,-99.99,,2013-03-08 14:32:00,
2013-03-08 09:42:00,30.0,21.0,-100.00,NE,40,3.0,4.0,68,-99.99,,,-99.99,,2013-03-08 14:42:00,
2013-03-08 09:52:00,30.0,21.0,-100.00,NE,40,3.0,4.0,68,-99.99,,,-99.99,,2013-03-08 14:52:00,
2013-03-08 10:03:00,33.0,20.0,-100.00,East,100,3.0,5.0,58,-99.99,,,-99.99,,2013-03-08 15:03:00,
2013-03-08 10:12:00,35.0,21.0,-100.00,East,80,1.0,4.0,55,-99.99,,,-99.99,,2013-03-08 15:12:00,
2013-03-08 10:22:00,36.0,20.0,-100.00,East,85,2.0,5.0,52,-99.99,,,-99.99,,2013-03-08 15:22:00,
2013-03-08 10:32:00,37.0,20.0,-100.00,East,100,4.0,5.0,49,-99.99,,,-99.99,,2013-03-08 15:32:00,
2013-03-08 10:42:00,37.0,20.0,-100.00,East,80,3.0,4.0,47,-99.99,,,-99.99,,2013-03-08 15:42:00,
2013-03-08 10:53:00,38.0,19.0,-100.00,ESE,115,1.0,2.0,46,-99.99,,,-99.99,,2013-03-08 15:53:00,
2013-03-08 11:01:00,40.0,19.0,-100.00,NNE,30,0.0,2.0,43,-99.99,,,-99.99,,2013-03-08 16:01:00,
2013-03-08 11:11:00,39.0,19.0,-100.00,SSE,160,4.0,6.0,44,-99.99,,,-99.99,,2013-03-08 16:11:00,
2013-03-08 11:22:00,39.0,19.0,-100.00,ENE,60,3.0,4.0,43,-99.99,,,-99.99,,2013-03-08 16:22:00,
2013-03-08 11:32:00,39.0,19.0,-100.00,ENE,75,4.0,6.0,43,-99.99,,,-99.99,,2013-03-08 16:32:00,
2013-03-08 11:42:00,41.0,19.0,-100.00,ESE,120,3.0,5.0,41,-99.99,,,-99.99,,2013-03-08 16:42:00,
2013-03-08 11:52:00,41.0,20.0,-100.00,SE,130,3.0,4.0,41,-99.99,,,-99.99,,2013-03-08 16:52:00,
2013-03-08 12:03:00,42.0,19.0,-100.00,East,100,3.0,6.0,40,-99.99,,,-99.99,,2013-03-08 17:03:00,
2013-03-08 12:11:00,42.0,19.0,-100.00,SSE,160,4.0,6.0,39,-99.99,,,-99.99,,2013-03-08 17:11:00,
2013-03-08 12:21:00,43.0,19.0,-100.00,SE,145,2.0,6.0,38,-99.99,,,-99.99,,2013-03-08 17:21:00,
2013-03-08 12:32:00,44.0,20.0,-100.00,SE,130,0.0,6.0,37,-99.99,,,-99.99,,2013-03-08 17:32:00,
2013-03-08 12:42:00,42.0,19.0,-100.00,SSE,150,1.0,5.0,37,-99.99,,,-99.99,,2013-03-08 17:42:00,
2013-03-08 12:52:00,44.0,19.0,-100.00,South,180,1.0,4.0,36,-99.99,,,-99.99,,2013-03-08 17:52:00,
2013-03-08 13:02:00,42.0,18.0,-100.00,NNE,30,1.0,4.0,37,-99.99,,,-99.99,,2013-03-08 18:02:00,
2013-03-08 13:11:00,41.0,18.0,-100.00,NE,55,2.0,4.0,39,-99.99,,,-99.99,,2013-03-08 18:11:00,
2013-03-08 13:21:00,43.0,19.0,-100.00,NE,50,1.0,6.0,38,-99.99,,,-99.99,,2013-03-08 18:21:00,
2013-03-08 13:32:00,43.0,20.0,-100.00,South,190,4.0,7.0,39,-99.99,,,-99.99,,2013-03-08 18:32:00,
2013-03-08 13:42:00,42.0,20.0,-100.00,SSW,205,3.0,8.0,39,-99.99,,,-99.99,,2013-03-08 18:42:00,
2013-03-08 13:52:00,43.0,20.0,-100.00,SE,145,2.0,6.0,39,-99.99,,,-99.99,,2013-03-08 18:52:00,
2013-03-08 14:01:00,45.0,21.0,-100.00,ESE,110,1.0,4.0,38,-99.99,,,-99.99,,2013-03-08 19:01:00,
2013-03-08 14:11:00,44.0,20.0,-100.00,East,90,4.0,7.0,38,-99.99,,,-99.99,,2013-03-08 19:11:00,
2013-03-08 14:22:00,43.0,20.0,-100.00,ESE,110,4.0,9.0,38,-99.99,,,-99.99,,2013-03-08 19:22:00,
2013-03-08 14:32:00,42.0,19.0,-100.00,NE,45,3.0,6.0,38,-99.99,,,-99.99,,2013-03-08 19:32:00,
2013-03-08 14:42:00,44.0,20.0,-100.00,SSW,205,2.0,4.0,37,-99.99,,,-99.99,,2013-03-08 19:42:00,
2013-03-08 14:52:00,43.0,20.0,-100.00,South,175,4.0,7.0,38,-99.99,,,-99.99,,2013-03-08 19:52:00,
2013-03-08 15:01:00,45.0,21.0,-100.00,East,95,3.0,5.0,38,-99.99,,,-99.99,,2013-03-08 20:01:00,
2013-03-08 15:11:00,46.0,21.0,-100.00,ESE,110,2.0,4.0,36,-99.99,,,-99.99,,2013-03-08 20:11:00,
2013-03-08 15:22:00,46.0,20.0,-100.00,SSW,210,2.0,4.0,34,-99.99,,,-99.99,,2013-03-08 20:22:00,
2013-03-08 15:32:00,46.0,20.0,-100.00,East,100,4.0,6.0,35,-99.99,,,-99.99,,2013-03-08 20:32:00,
2013-03-08 15:42:00,44.0,19.0,-100.00,SE,145,4.0,7.0,36,-99.99,,,-99.99,,2013-03-08 20:42:00,
2013-03-08 15:52:00,45.0,20.0,-100.00,East,80,1.0,5.0,36,-99.99,,,-99.99,,2013-03-08 20:52:00,
2013-03-08 16:02:00,45.0,20.0,-100.00,East,80,1.0,5.0,36,-99.99,,,-99.99,,2013-03-08 21:02:00,
2013-03-08 16:11:00,45.0,21.0,-100.00,SSE,155,1.0,5.0,37,-99.99,,,-99.99,,2013-03-08 21:11:00,
2013-03-08 16:22:00,44.0,21.0,-100.00,SSE,160,2.0,6.0,38,-99.99,,,-99.99,,2013-03-08 21:22:00,
2013-03-08 16:32:00,44.0,20.0,-100.00,SSE,160,3.0,7.0,38,-99.99,,,-99.99,,2013-03-08 21:32:00,
2013-03-08 16:42:00,44.0,20.0,-100.00,SSW,205,2.0,4.0,38,-99.99,,,-99.99,,2013-03-08 21:42:00,
2013-03-08 16:52:00,44.0,20.0,-100.00,SW,220,1.0,4.0,38,-99.99,,,-99.99,,2013-03-08 21:52:00,
2013-03-08 17:01:00,44.0,20.0,-100.00,West,275,1.0,4.0,37,-99.99,,,-99.99,,2013-03-08 22:01:00,
2013-03-08 17:11:00,44.0,20.0,-100.00,ENE,75,3.0,4.0,38,-99.99,,,-99.99,,2013-03-08 22:11:00,
2013-03-08 17:22:00,44.0,20.0,-100.00,NNE,30,2.0,3.0,38,-99.99,,,-99.99,,2013-03-08 22:22:00,
2013-03-08 17:32:00,43.0,20.0,-100.00,South,170,1.0,4.0,38,-99.99,,,-99.99,,2013-03-08 22:32:00,
2013-03-08 17:42:00,42.0,19.0,-100.00,East,80,2.0,4.0,39,-99.99,,,-99.99,,2013-03-08 22:42:00,
2013-03-08 17:52:00,42.0,20.0,-100.00,ESE,110,2.0,4.0,40,-99.99,,,-99.99,,2013-03-08 22:52:00,
2013-03-08 18:02:00,42.0,20.0,-100.00,East,90,2.0,4.0,40,-99.99,,,-99.99,,2013-03-08 23:02:00,
2013-03-08 18:12:00,41.0,19.0,-100.00,ENE,70,2.0,3.0,41,-99.99,,,-99.99,,2013-03-08 23:12:00,
2013-03-08 18:22:00,40.0,19.0,-100.00,ENE,75,2.0,4.0,42,-99.99,,,-99.99,,2013-03-08 23:22:00,
2013-03-08 18:32:00,39.0,19.0,-100.00,ENE,75,3.0,4.0,44,-99.99,,,-99.99,,2013-03-08 23:32:00,
2013-03-08 18:42:00,38.0,19.0,-100.00,ENE,75,4.0,4.0,46,-99.99,,,-99.99,,2013-03-08 23:42:00,
2013-03-08 18:52:00,37.0,19.0,-100.00,NE,55,2.0,4.0,48,-99.99,,,-99.99,,2013-03-08 23:52:00,
2013-03-08 19:02:00,36.0,19.0,-100.00,NNE,30,1.0,2.0,49,-99.99,,,-99.99,,2013-03-09 00:02:00,
2013-03-08 19:11:00,35.0,19.0,-100.00,ENE,70,1.0,2.0,51,-99.99,,,-99.99,,2013-03-09 00:11:00,
2013-03-08 19:22:00,36.0,19.0,-100.00,ENE,60,2.0,2.0,51,-99.99,,,-99.99,,2013-03-09 00:22:00,
2013-03-08 19:32:00,35.0,19.0,-100.00,ENE,65,1.0,2.0,51,-99.99,,,-99.99,,2013-03-09 00:32:00,
2013-03-08 19:42:00,34.0,19.0,-100.00,NE,35,1.0,1.0,53,-99.99,,,-99.99,,2013-03-09 00:42:00,
2013-03-08 19:52:00,33.0,19.0,-100.00,NNE,15,0.0,1.0,56,-99.99,,,-99.99,,2013-03-09 00:52:00,
2013-03-08 20:02:00,32.0,19.0,-100.00,NW,315,0.0,0.0,58,-99.99,,,-99.99,,2013-03-09 01:02:00,
2013-03-08 20:12:00,32.0,20.0,-100.00,NW,315,0.0,0.0,60,-99.99,,,-99.99,,2013-03-09 01:12:00,
2013-03-08 20:22:00,31.0,20.0,-100.00,SW,230,1.0,1.0,61,-99.99,,,-99.99,,2013-03-09 01:22:00,
2013-03-08 20:32:00,31.0,20.0,-100.00,SSW,205,0.0,1.0,63,-99.99,,,-99.99,,2013-03-09 01:32:00,
2013-03-08 20:42:00,31.0,20.0,-100.00,WSW,250,2.0,2.0,65,-99.99,,,-99.99,,2013-03-09 01:42:00,
2013-03-08 20:51:00,30.0,21.0,-100.00,SW,230,2.0,4.0,66,-99.99,,,-99.99,,2013-03-09 01:51:00,
2013-03-08 21:01:00,30.0,20.0,-100.00,South,185,1.0,2.0,67,-99.99,,,-99.99,,2013-03-09 02:01:00,
2013-03-08 21:11:00,30.0,21.0,-100.00,South,185,1.0,1.0,68,-99.99,,,-99.99,,2013-03-09 02:11:00,
2013-03-08 21:21:00,29.0,21.0,-100.00,SSW,210,0.0,1.0,69,-99.99,,,-99.99,,2013-03-09 02:21:00,
2013-03-08 21:31:00,29.0,21.0,-100.00,SSW,195,1.0,1.0,70,-99.99,,,-99.99,,2013-03-09 02:31:00,
2013-03-08 21:41:00,29.0,21.0,-100.00,SW,215,1.0,2.0,72,-99.99,,,-99.99,,2013-03-09 02:41:00,
2013-03-08 21:51:00,29.0,21.0,-100.00,West,260,0.0,1.0,73,-99.99,,,-99.99,,2013-03-09 02:51:00,
2013-03-08 22:01:00,28.0,21.0,-100.00,West,260,0.0,0.0,74,-99.99,,,-99.99,,2013-03-09 03:01:00,
2013-03-08 22:11:00,28.0,22.0,-100.00,West,275,0.0,0.0,74,-99.99,,,-99.99,,2013-03-09 03:11:00,
2013-03-08 22:21:00,28.0,21.0,-100.00,West,265,0.0,0.0,75,-99.99,,,-99.99,,2013-03-09 03:21:00,
2013-03-08 22:31:00,28.0,21.0,-100.00,West,265,1.0,1.0,75,-99.99,,,-99.99,,2013-03-09 03:31:00,
2013-03-08 22:41:00,28.0,21.0,-100.00,West,270,0.0,1.0,77,-99.99,,,-99.99,,2013-03-09 03:41:00,
2013-03-08 22:52:00,28.0,22.0,-100.00,West,270,0.0,0.0,77,-99.99,,,-99.99,,2013-03-09 03:52:00,
2013-03-08 23:01:00,28.0,22.0,-100.00,ENE,75,1.0,2.0,77,-99.99,,,-99.99,,2013-03-09 04:01:00,
2013-03-08 23:11:00,27.0,21.0,-100.00,East,85,0.0,1.0,77,-99.99,,,-99.99,,2013-03-09 04:11:00,
2013-03-08 23:22:00,27.0,21.0,-100.00,ENE,65,3.0,3.0,79,-99.99,,,-99.99,,2013-03-09 04:22:00,
2013-03-08 23:32:00,27.0,21.0,-100.00,ENE,70,4.0,4.0,79,-99.99,,,-99.99,,2013-03-09 04:32:00,
2013-03-08 23:42:00,26.0,21.0,-100.00,NNE,20,2.0,4.0,80,-99.99,,,-99.99,,2013-03-09 04:42:00,
2013-03-08 23:51:00,27.0,22.0,-100.00,NE,45,2.0,2.0,81,-99.99,,,-99.99,,2013-03-09 04:51:00,